Time;durP1;ratioP1;P1;durP2;ratioP2;P2;SDS_P1;SDS_P2;PMS_P1;PMS_P2;Temp;Humidity;BMP_temperature;BMP_pressure;BME280_temperature;BME280_humidity;BME280_pressure;Samples;Min_cycle;Max_cycle;Signal;HPM_P1;HPM_P2
2023/02/06 00:01:26;;;;;;;;;30.00;23.00;;;;;-5.04;78.70;100641.19;4921659;28;102131;-68
2023/02/06 00:03:53;;;;;;;;;26.67;19.67;;;;;-5.02;78.33;100631.44;4918107;28;103798;-68
2023/02/06 00:06:20;;;;;;;;;22.00;18.67;;;;;-5.02;77.72;100634.09;4917492;28;103276;-68
2023/02/06 00:08:47;;;;;;;;;15.00;12.00;;;;;-4.97;77.53;100637.44;4911154;28;102377;-68
2023/02/06 00:11:19;;;;;;;;;16.33;12.33;;;;;-4.95;77.75;100630.31;4915835;28;102409;-68
2023/02/06 00:13:47;;;;;;;;;17.33;13.00;;;;;-4.96;77.69;100623.34;4913634;28;103066;-68
2023/02/06 00:16:19;;;;;;;;;9.67;9.00;;;;;-4.91;77.21;100631.09;4902701;28;102606;-68
2023/02/06 00:18:47;;;;;;;;;10.67;6.00;;;;;-4.97;77.55;100621.59;4913767;28;101996;-68
2023/02/06 00:21:16;;;;;;;;;14.33;10.00;;;;;-4.92;78.76;100627.59;4913510;28;102559;-68
2023/02/06 00:23:43;;;;;;;;;12.00;9.33;;;;;-4.88;79.23;100631.81;4922674;28;103638;-68
2023/02/06 00:26:10;;;;;;;;;7.00;7.00;;;;;-4.88;78.05;100637.09;4913359;28;102205;-68
2023/02/06 00:28:37;;;;;;;;;14.33;12.67;;;;;-4.89;77.50;100638.00;4915121;28;102291;-69
2023/02/06 00:31:06;;;;;;;;;15.67;13.00;;;;;-4.92;77.76;100643.41;4911684;28;102162;-68
2023/02/06 00:33:34;;;;;;;;;24.33;20.33;;;;;-5.01;77.76;100635.81;4910351;28;104083;-68
2023/02/06 00:36:02;;;;;;;;;30.00;21.00;;;;;-5.07;77.86;100649.22;4912574;28;102468;-69
2023/02/06 00:38:29;;;;;;;;;30.33;24.67;;;;;-5.14;77.39;100645.06;4910797;28;102501;-69
2023/02/06 00:40:56;;;;;;;;;16.33;14.33;;;;;-5.16;78.37;100641.63;4910481;28;102416;-68
2023/02/06 00:43:24;;;;;;;;;25.67;18.33;;;;;-5.11;78.93;100635.28;4910807;28;104415;-69
2023/02/06 00:45:52;;;;;;;;;24.67;21.00;;;;;-5.15;77.54;100627.53;4906431;28;103222;-69
2023/02/06 00:48:19;;;;;;;;;27.67;23.67;;;;;-5.13;78.00;100630.94;4916367;28;102778;-68
2023/02/06 00:50:51;;;;;;;;;37.67;21.33;;;;;-5.10;78.40;100630.88;4909155;28;102414;-69
2023/02/06 00:53:18;;;;;;;;;32.67;23.33;;;;;-5.12;79.35;100627.41;4910130;28;103999;-68
2023/02/06 00:55:45;;;;;;;;;25.00;24.00;;;;;-5.16;78.41;100631.06;4920392;28;103448;-68
2023/02/06 00:58:12;;;;;;;;;33.00;21.33;;;;;-5.13;77.72;100625.69;4909862;28;102043;-68
2023/02/06 01:00:39;;;;;;;;;21.00;17.33;;;;;-5.10;78.52;100620.31;4917068;28;105455;-69
2023/02/06 01:03:06;;;;;;;;;14.33;12.00;;;;;-5.07;78.18;100617.56;4912128;28;108813;-69
2023/02/06 01:05:33;;;;;;;;;13.00;12.00;;;;;-5.02;77.83;100610.34;4920302;28;102236;-68
2023/02/06 01:08:01;;;;;;;;;18.67;15.00;;;;;-5.01;77.31;100614.72;4907060;28;102299;-68
2023/02/06 01:10:30;;;;;;;;;11.33;9.33;;;;;-5.01;76.97;100612.09;4920090;28;103399;-68
2023/02/06 01:12:57;;;;;;;;;9.67;9.67;;;;;-5.02;76.88;100613.00;4916011;28;104006;-68
2023/02/06 01:15:24;;;;;;;;;9.00;7.00;;;;;-4.99;76.98;100602.31;4917605;28;102422;-68
2023/02/06 01:17:51;;;;;;;;;3.00;3.00;;;;;-4.96;77.84;100595.19;4921183;28;102052;-68
2023/02/06 01:20:18;;;;;;;;;7.67;7.00;;;;;-5.56;76.62;100499.81;4915385;28;102231;-68
2023/02/06 01:22:45;;;;;;;;;10.00;9.67;;;;;-5.14;77.87;100594.97;4910985;28;102954;-69
2023/02/06 01:25:12;;;;;;;;;16.00;12.67;;;;;-5.23;77.12;100608.47;4911607;28;102651;-68
2023/02/06 01:27:39;;;;;;;;;7.67;7.00;;;;;-5.26;78.58;100604.16;4910797;28;102124;-68
2023/02/06 01:30:07;;;;;;;;;4.00;4.00;;;;;-5.24;77.72;100596.19;4906837;28;102931;-68
2023/02/06 01:32:38;;;;;;;;;7.00;4.00;;;;;-5.25;77.75;100587.44;4911193;28;105798;-69
2023/02/06 01:35:06;;;;;;;;;12.33;9.00;;;;;-5.27;77.61;100591.03;4910155;28;103835;-68
2023/02/06 01:37:34;;;;;;;;;13.00;9.33;;;;;-5.27;77.32;100577.88;4903010;28;102593;-68
2023/02/06 01:40:03;;;;;;;;;4.67;4.00;;;;;-5.25;77.66;100590.06;4917254;28;102299;-68
2023/02/06 01:42:39;;;;;;;;;7.33;5.33;;;;;-5.31;77.98;100592.06;4914178;28;104043;-68
2023/02/06 01:45:24;;;;;;;;;4.00;4.00;;;;;-5.31;78.96;100589.44;4912986;28;102795;-68
2023/02/06 01:47:58;;;;;;;;;4.00;3.00;;;;;-5.31;78.05;100590.25;4907007;28;102281;-68
2023/02/06 01:50:26;;;;;;;;;2.33;1.00;;;;;-5.28;78.39;100592.81;4913246;28;102690;-68
2023/02/06 01:52:54;;;;;;;;;4.00;3.00;;;;;-5.27;78.24;100585.78;4911145;28;104347;-68
2023/02/06 01:55:20;;;;;;;;;3.67;3.00;;;;;-5.35;77.63;100587.78;4917036;28;102638;-68
2023/02/06 01:57:48;;;;;;;;;1.67;1.67;;;;;-5.44;79.42;100581.94;4909345;28;102336;-68
2023/02/06 02:00:15;;;;;;;;;4.00;1.00;;;;;-5.45;79.51;100582.84;4916278;28;102422;-68
2023/02/06 02:02:47;;;;;;;;;1.00;1.00;;;;;-5.49;79.08;100581.22;4903938;28;104023;-68
2023/02/06 02:05:17;;;;;;;;;1.00;1.00;;;;;-5.55;77.89;100573.53;4901539;28;102438;-67
2023/02/06 02:08:03;;;;;;;;;5.33;4.00;;;;;-5.68;79.18;100564.34;4905164;28;102311;-67
2023/02/06 02:10:51;;;;;;;;;4.00;3.00;;;;;-5.67;79.01;100568.66;4915096;28;102426;-67
2023/02/06 02:14:03;;;;;;;;;12.67;10.67;;;;;-5.92;80.67;100554.63;4910066;28;103210;-68
2023/02/06 02:16:58;;;;;;;;;16.33;12.00;;;;;-6.08;79.73;100564.78;4911713;28;102685;-68
2023/02/06 02:20:11;;;;;;;;;13.00;10.00;;;;;-6.13;81.98;100553.56;4907609;28;102318;-68
2023/02/06 02:23:15;;;;;;;;;14.67;10.67;;;;;-6.20;82.42;100551.16;4906883;28;102110;-68
2023/02/06 02:26:11;;;;;;;;;16.00;16.00;;;;;-6.34;82.02;100548.97;4905636;28;108156;-68
2023/02/06 02:28:49;;;;;;;;;13.00;10.67;;;;;-6.39;82.99;100538.56;4911661;28;102276;-68
2023/02/06 02:31:31;;;;;;;;;14.33;13.00;;;;;-6.43;82.88;100546.63;4905548;28;102566;-68
2023/02/06 02:34:17;;;;;;;;;15.50;12.25;;;;;-6.46;83.53;100544.94;4910177;28;103164;-68
2023/02/06 02:36:58;;;;;;;;;22.25;18.75;;;;;-6.50;82.92;100548.59;4908145;28;108783;-68
2023/02/06 02:39:58;;;;;;;;;20.50;16.00;;;;;-6.54;83.41;100528.53;4907765;28;102350;-68
2023/02/06 02:42:42;;;;;;;;;15.50;11.00;;;;;-6.45;85.10;100538.78;4904513;28;102353;-68
2023/02/06 02:45:09;;;;;;;;;10.67;7.00;;;;;-6.40;84.64;100542.13;4906752;28;102591;-68
2023/02/06 02:47:48;;;;;;;;;9.67;9.00;;;;;-6.37;83.55;100541.16;4903840;28;104023;-68
2023/02/06 02:50:17;;;;;;;;;4.00;3.00;;;;;-6.34;83.09;100541.06;4903656;28;103231;-68
2023/02/06 02:52:45;;;;;;;;;4.67;0.33;;;;;-6.28;84.08;100540.00;4907807;28;104214;-68
2023/02/06 02:55:21;;;;;;;;;3.00;3.00;;;;;-6.27;82.63;100539.13;4920431;28;102527;-68
2023/02/06 02:57:53;;;;;;;;;9.33;4.67;;;;;-6.39;82.69;100538.56;4910972;28;103797;-67
2023/02/06 03:00:22;;;;;;;;;6.67;4.00;;;;;-6.41;84.78;100553.56;4910499;28;102450;-67
2023/02/06 03:02:51;;;;;;;;;3.33;3.33;;;;;-6.42;83.93;100543.06;4911438;28;102500;-66
2023/02/06 03:05:23;;;;;;;;;6.67;1.67;;;;;-6.39;84.01;100533.31;4913490;28;102278;-67
2023/02/06 03:08:26;;;;;;;;;1.67;1.00;;;;;-6.38;84.05;100526.28;4910810;28;103981;-67
2023/02/06 03:11:07;;;;;;;;;2.33;1.00;;;;;-6.36;83.73;100527.09;4905611;28;102439;-67
2023/02/06 03:13:41;;;;;;;;;0.00;0.00;;;;;-6.44;83.88;100524.69;4920728;28;102192;-67
2023/02/06 03:16:14;;;;;;;;;1.67;0.00;;;;;-6.39;84.35;100543.84;4910608;28;102398;-67
2023/02/06 03:18:58;;;;;;;;;2.33;1.00;;;;;-6.40;83.47;100544.78;4907046;28;108837;-67
2023/02/06 03:21:27;;;;;;;;;0.33;0.33;;;;;-6.43;83.96;100538.72;4912877;28;102591;-67
2023/02/06 03:24:01;;;;;;;;;0.67;0.67;;;;;-6.52;83.53;100547.75;4907567;28;102135;-67
2023/02/06 03:26:30;;;;;;;;;4.00;3.00;;;;;-6.61;82.72;100540.16;4907664;28;102346;-67
2023/02/06 03:29:05;;;;;;;;;4.00;3.00;;;;;-6.77;83.45;100549.41;4909241;28;104115;-67
2023/02/06 03:31:37;;;;;;;;;13.00;10.00;;;;;-6.88;84.55;100556.75;4910196;28;102463;-67
2023/02/06 03:34:33;;;;;;;;;15.00;12.50;;;;;-6.93;86.01;100551.63;4920155;28;102125;-67
2023/02/06 03:37:00;;;;;;;;;14.00;10.00;;;;;-6.92;85.14;100542.81;4905082;28;102325;-68
2023/02/06 03:39:28;;;;;;;;;8.33;7.00;;;;;-6.91;85.33;100538.44;4911458;28;104008;-67
2023/02/06 03:41:58;;;;;;;;;11.00;9.00;;;;;-6.89;84.61;100541.91;4908902;28;102621;-68
2023/02/06 03:44:32;;;;;;;;;6.33;4.67;;;;;-6.99;83.68;100541.28;4914045;28;102194;-67
2023/02/06 03:47:02;;;;;;;;;5.33;4.67;;;;;-7.07;84.30;100537.16;4918653;28;102234;-67
2023/02/06 03:49:31;;;;;;;;;32.00;28.25;;;;;-7.40;85.59;100526.69;4912131;28;104083;-68
2023/02/06 03:52:04;;;;;;;;;34.00;28.00;;;;;-7.53;86.86;100525.28;4911880;28;102586;-68
2023/02/06 03:54:38;;;;;;;;;22.75;20.00;;;;;-7.52;88.65;100519.13;4917628;28;102087;-68
2023/02/06 03:57:10;;;;;;;;;21.50;15.25;;;;;-7.48;88.06;100523.41;4908249;28;102470;-68
2023/02/06 03:59:37;;;;;;;;;17.25;16.00;;;;;-7.56;86.96;100533.25;4916621;28;108722;-67
2023/02/06 04:02:05;;;;;;;;;27.75;21.50;;;;;-7.76;89.43;100531.16;4915517;28;102658;-67
2023/02/06 04:04:39;;;;;;;;;35.00;30.00;;;;;-7.87;90.77;100533.19;4914752;28;102056;-67
2023/02/06 04:07:14;;;;;;;;;39.50;29.00;;;;;-7.87;90.33;100530.56;4908485;28;102074;-67
2023/02/06 04:09:41;;;;;;;;;29.75;25.25;;;;;-7.86;90.94;100531.41;4922215;28;108878;-67
2023/02/06 04:12:09;;;;;;;;;39.50;36.00;;;;;-7.86;90.94;100539.28;4910574;28;102150;-67
2023/02/06 04:14:36;;;;;;;;;39.00;32.00;;;;;-8.40;90.46;100432.25;4915139;28;102009;-67
2023/02/06 04:17:04;;;;;;;;;25.75;19.50;;;;;-7.82;90.37;100531.31;4913935;28;102499;-67
2023/02/06 04:19:32;;;;;;;;;37.00;25.25;;;;;-7.83;89.23;100537.44;4910990;28;103732;-67
2023/02/06 04:22:00;;;;;;;;;28.75;26.75;;;;;-7.88;90.02;100530.63;4911133;28;102387;-67
2023/02/06 04:24:27;;;;;;;;;32.75;25.00;;;;;-7.92;89.16;100549.94;4912975;28;106021;-67
2023/02/06 04:26:56;;;;;;;;;22.00;16.50;;;;;-7.91;90.90;100549.03;4912665;28;102249;-67
2023/02/06 04:29:23;;;;;;;;;24.00;20.25;;;;;-8.07;90.22;100534.59;4906978;28;104009;-67
2023/02/06 04:31:50;;;;;;;;;17.50;14.00;;;;;-7.99;89.08;100558.88;4911354;28;102408;-67
2023/02/06 04:34:17;;;;;;;;;12.25;10.00;;;;;-7.95;90.18;100544.78;4911920;28;104220;-68
2023/02/06 04:36:44;;;;;;;;;8.25;3.25;;;;;-7.94;90.26;100539.50;4912802;28;102535;-70
2023/02/06 04:39:11;;;;;;;;;6.25;4.00;;;;;-8.06;88.60;100537.19;4911472;28;104176;-69
2023/02/06 04:41:38;;;;;;;;;7.75;6.75;;;;;-8.13;89.14;100541.72;4913551;28;102362;-68
2023/02/06 04:44:05;;;;;;;;;6.75;4.00;;;;;-8.19;89.39;100541.84;4914324;28;102156;-67
2023/02/06 04:46:32;;;;;;;;;9.00;7.00;;;;;-8.19;89.09;100544.47;4914188;28;102851;-68
2023/02/06 04:49:02;;;;;;;;;9.75;7.00;;;;;-8.40;88.55;100528.41;4907934;28;103076;-68
2023/02/06 04:51:29;;;;;;;;;8.00;6.00;;;;;-8.38;88.73;100551.09;4916513;28;102256;-67
2023/02/06 04:53:56;;;;;;;;;11.75;8.50;;;;;-8.38;88.97;100545.00;4911976;28;102084;-68
2023/02/06 04:56:24;;;;;;;;;6.25;5.50;;;;;-8.38;90.48;100545.84;4914230;28;102507;-67
2023/02/06 04:58:51;;;;;;;;;11.00;10.00;;;;;-8.49;90.70;100552.22;4911371;28;104160;-67
2023/02/06 05:01:19;;;;;;;;;25.25;18.75;;;;;-8.59;90.79;100548.94;4919317;28;102128;-66
2023/02/06 05:03:46;;;;;;;;;23.50;18.75;;;;;-8.52;90.29;100558.41;4903532;28;102186;-68
2023/02/06 05:06:14;;;;;;;;;13.50;9.50;;;;;-8.50;91.51;100559.22;4921759;28;102648;-67
2023/02/06 05:08:41;;;;;;;;;23.00;17.50;;;;;-8.59;90.74;100562.06;4912519;28;103971;-67
2023/02/06 05:11:08;;;;;;;;;20.00;16.25;;;;;-8.90;90.99;100512.06;4923300;28;102565;-67
2023/02/06 05:13:35;;;;;;;;;9.00;6.25;;;;;-8.52;91.40;100561.03;4908596;28;103194;-66
2023/02/06 05:16:11;;;;;;;;;12.00;12.00;;;;;-8.51;90.76;100568.03;4917459;28;106277;-67
2023/02/06 05:18:39;;;;;;;;;23.50;18.75;;;;;-8.63;90.10;100555.16;4914064;28;108894;-66
2023/02/06 05:21:06;;;;;;;;;37.25;26.25;;;;;-8.74;90.54;100551.94;4922287;28;102806;-67
2023/02/06 05:23:33;;;;;;;;;27.50;23.50;;;;;-8.79;91.02;100559.03;4911662;28;102320;-69
2023/02/06 05:26:00;;;;;;;;;41.75;28.50;;;;;-8.79;92.47;100565.13;4917936;28;102520;-67
2023/02/06 05:28:32;;;;;;;;;28.50;24.00;;;;;-8.72;92.58;100560.59;4909092;28;104004;-67
2023/02/06 05:31:00;;;;;;;;;18.75;12.00;;;;;-8.64;92.10;100553.44;4912094;28;102608;-67
2023/02/06 05:33:28;;;;;;;;;18.50;10.00;;;;;-8.59;91.32;100546.31;4913605;28;102867;-67
2023/02/06 05:36:06;;;;;;;;;21.25;15.25;;;;;-8.53;91.56;100550.56;4917953;28;102603;-67
2023/02/06 05:38:33;;;;;;;;;10.00;7.00;;;;;-8.48;92.36;100556.59;4907377;28;104204;-67
2023/02/06 05:41:00;;;;;;;;;7.00;7.00;;;;;-8.47;92.18;100548.69;4914730;28;102130;-68
2023/02/06 05:43:27;;;;;;;;;13.00;7.50;;;;;-8.42;91.12;100541.56;4914721;28;105329;-67
2023/02/06 05:45:54;;;;;;;;;7.50;5.00;;;;;-8.38;90.65;100545.84;4914849;28;102701;-67
2023/02/06 05:48:21;;;;;;;;;10.50;9.25;;;;;-8.38;91.31;100551.09;4914477;28;103990;-73
2023/02/06 05:50:48;;;;;;;;;17.50;12.00;;;;;-8.50;90.46;100540.88;4925958;28;102310;-67
2023/02/06 05:53:17;;;;;;;;;36.50;24.50;;;;;-8.42;91.84;100552.03;4913082;28;102110;-67
2023/02/06 05:55:44;;;;;;;;;19.25;16.75;;;;;-8.35;91.81;100551.03;4919983;28;102560;-67
2023/02/06 05:58:11;;;;;;;;;12.75;9.75;;;;;-8.45;91.66;100520.66;4914382;28;104035;-66
2023/02/06 06:00:38;;;;;;;;;10.50;7.50;;;;;-8.30;90.88;100554.41;4912356;28;102306;-67
2023/02/06 06:03:05;;;;;;;;;21.75;15.75;;;;;-8.27;90.36;100553.44;4914445;28;102170;-67
2023/02/06 06:05:32;;;;;;;;;20.00;12.50;;;;;-8.24;90.84;100553.38;4906943;28;103513;-66
2023/02/06 06:07:59;;;;;;;;;15.50;9.50;;;;;-8.21;90.47;100548.91;4913237;28;104004;-67
2023/02/06 06:10:26;;;;;;;;;11.00;10.50;;;;;-8.11;89.40;100560.06;4895651;28;102617;-66
2023/02/06 06:12:53;;;;;;;;;22.25;17.75;;;;;-8.07;90.05;100561.69;4903422;28;103954;-67
2023/02/06 06:15:20;;;;;;;;;13.50;11.50;;;;;-8.02;90.33;100554.59;4910979;28;102167;-67
2023/02/06 06:17:47;;;;;;;;;18.75;15.00;;;;;-7.95;89.31;100563.16;4910550;28;103997;-64
2023/02/06 06:20:14;;;;;;;;;14.00;9.75;;;;;-7.90;88.74;100562.13;4915142;28;102308;-67
2023/02/06 06:22:41;;;;;;;;;17.00;9.75;;;;;-7.80;88.48;100554.91;4925228;28;102333;-67
2023/02/06 06:25:08;;;;;;;;;12.50;10.50;;;;;-7.71;90.08;100570.41;4918655;28;102270;-67
2023/02/06 06:27:35;;;;;;;;;15.00;10.00;;;;;-7.64;89.00;100561.47;4908293;28;104023;-67
2023/02/06 06:30:02;;;;;;;;;7.75;5.00;;;;;-7.56;89.34;100562.13;4901916;28;102416;-67
2023/02/06 06:32:29;;;;;;;;;6.00;5.00;;;;;-7.50;88.27;100569.84;4904752;28;102405;-66
2023/02/06 06:34:56;;;;;;;;;12.00;10.00;;;;;-7.46;87.55;100570.63;4919024;28;102420;-66
2023/02/06 06:37:23;;;;;;;;;13.00;7.50;;;;;-7.38;87.88;100566.91;4915765;28;103939;-66
2023/02/06 06:39:50;;;;;;;;;8.00;7.00;;;;;-7.27;87.98;100556.97;4918827;28;102156;-67
2023/02/06 06:42:17;;;;;;;;;16.50;13.50;;;;;-7.16;86.33;100553.19;4916155;28;103097;-66
2023/02/06 06:44:44;;;;;;;;;9.25;7.50;;;;;-7.07;86.00;100560.81;4908368;28;101935;-66
2023/02/06 06:47:11;;;;;;;;;6.00;4.50;;;;;-7.03;86.02;100565.09;4918543;28;104163;-66
2023/02/06 06:49:38;;;;;;;;;18.25;9.00;;;;;-6.93;86.50;100572.66;4916130;28;102604;-66
2023/02/06 06:52:05;;;;;;;;;13.50;8.50;;;;;-6.80;86.21;100566.13;4909797;28;102226;-67
2023/02/06 06:54:45;;;;;;;;;9.50;9.00;;;;;-6.73;84.94;100569.44;4915420;28;102333;-66
2023/02/06 06:57:12;;;;;;;;;9.00;7.00;;;;;-6.64;83.38;100569.19;4918738;28;103974;-66
2023/02/06 06:59:39;;;;;;;;;7.50;7.50;;;;;-6.52;83.88;100568.81;4918537;28;102580;-67
2023/02/06 07:02:06;;;;;;;;;9.00;9.00;;;;;-6.43;83.76;100565.91;4914180;28;102314;-66
2023/02/06 07:04:33;;;;;;;;;11.50;9.00;;;;;-6.29;83.06;100570.72;4919202;28;102395;-68
2023/02/06 07:07:00;;;;;;;;;9.75;5.00;;;;;-6.13;82.59;100560.59;4924291;28;103945;-66
2023/02/06 07:09:27;;;;;;;;;6.50;6.50;;;;;-5.94;82.01;100569.59;4902129;28;102756;-66
2023/02/06 07:11:54;;;;;;;;;17.50;14.50;;;;;-5.80;81.25;100558.59;4909970;28;102308;-66
2023/02/06 07:14:22;;;;;;;;;22.00;21.00;;;;;-5.63;80.83;100567.66;4915299;28;102365;-67
2023/02/06 07:16:49;;;;;;;;;26.25;21.00;;;;;-5.53;79.30;100568.19;4895350;28;104203;-68
2023/02/06 07:19:16;;;;;;;;;29.50;24.50;;;;;-5.42;79.80;100561.66;4905088;28;102420;-66
2023/02/06 07:21:43;;;;;;;;;27.25;24.00;;;;;-5.36;78.15;100562.38;4903440;28;102274;-66
2023/02/06 07:24:10;;;;;;;;;29.75;26.25;;;;;-5.24;78.33;100569.84;4905585;28;103017;-67
2023/02/06 07:26:36;;;;;;;;;53.00;42.00;;;;;-5.14;77.34;100564.19;4899403;28;103645;-68
2023/02/06 07:29:03;;;;;;;;;29.75;25.00;;;;;-5.03;78.23;100564.66;4906157;28;102701;-68
2023/02/06 07:31:31;;;;;;;;;34.00;24.00;;;;;-4.82;76.51;100559.53;4904460;28;102004;-67
2023/02/06 07:33:59;;;;;;;;;27.50;25.75;;;;;-4.79;76.27;100565.53;4906870;28;102554;-67
2023/02/06 07:36:26;;;;;;;;;42.25;35.75;;;;;-4.82;76.48;100560.38;4910844;28;104270;-69
2023/02/06 07:38:53;;;;;;;;;45.75;38.00;;;;;-4.76;75.04;100557.50;4904104;28;105067;-69
2023/02/06 07:41:20;;;;;;;;;66.75;48.00;;;;;-4.80;75.25;100553.25;4909998;28;101944;-68
2023/02/06 07:43:47;;;;;;;;;50.50;42.25;;;;;-4.81;75.04;100559.44;4902123;28;102569;-68
2023/02/06 07:46:14;;;;;;;;;66.00;45.25;;;;;-4.72;75.11;100561.75;4916064;28;104127;-68
2023/02/06 07:48:41;;;;;;;;;62.00;48.50;;;;;-4.62;74.77;100554.34;4915877;28;102571;-68
2023/02/06 07:51:09;;;;;;;;;59.50;46.25;;;;;-4.66;75.43;100561.53;4917510;28;102676;-69
2023/02/06 07:53:36;;;;;;;;;54.25;47.00;;;;;-4.47;75.10;100558.19;4925327;28;102606;-68
2023/02/06 07:56:12;;;;;;;;;73.50;51.25;;;;;-4.39;74.30;100554.31;4921286;28;103931;-69
2023/02/06 07:58:39;;;;;;;;;60.75;49.25;;;;;-4.25;74.13;100553.78;4926920;28;102289;-69
2023/02/06 08:01:06;;;;;;;;;53.75;47.50;;;;;-4.29;73.75;100525.78;4921325;28;102219;-68
2023/02/06 08:03:34;;;;;;;;;66.50;48.25;;;;;-3.98;73.37;100544.75;4924714;28;102550;-69
2023/02/06 08:06:16;;;;;;;;;31.50;25.50;;;;;-3.85;71.82;100548.63;4913021;28;104035;-69
2023/02/06 08:08:44;;;;;;;;;47.25;39.50;;;;;-3.81;71.43;100549.34;4919417;28;105075;-69
2023/02/06 08:11:17;;;;;;;;;43.33;31.67;;;;;-3.85;71.58;100553.03;4922252;28;102754;-69
2023/02/06 08:13:46;;;;;;;;;48.67;38.33;;;;;-3.84;71.14;100547.69;4918759;28;102315;-69
2023/02/06 08:16:16;;;;;;;;;43.25;33.50;;;;;-4.43;71.89;100468.25;4916389;28;104179;-69
2023/02/06 08:18:43;;;;;;;;;53.00;43.25;;;;;-3.96;73.14;100558.75;4922313;28;102346;-69
2023/02/06 08:21:16;;;;;;;;;49.75;35.50;;;;;-3.93;70.94;100556.00;4923843;28;102173;-69
2023/02/06 08:23:43;;;;;;;;;50.67;29.33;;;;;-3.90;70.83;100552.38;4931725;28;104092;-69
2023/02/06 08:26:17;;;;;;;;;41.67;32.33;;;;;-3.80;70.58;100559.84;4929519;28;108626;-70
2023/02/06 08:28:46;;;;;;;;;27.67;25.00;;;;;-3.75;70.42;100560.53;4929127;28;102381;-69
2023/02/06 08:31:22;;;;;;;;;28.33;23.33;;;;;-3.62;71.19;100558.22;4910002;28;102002;-69
2023/02/06 08:33:49;;;;;;;;;22.00;17.33;;;;;-3.66;69.89;100549.59;4921127;28;102148;-69
2023/02/06 08:36:19;;;;;;;;;28.33;20.00;;;;;-3.66;70.79;100554.00;4920482;28;103809;-69
2023/02/06 08:38:46;;;;;;;;;45.33;37.67;;;;;-3.82;68.53;100558.19;4905682;28;102309;-70
2023/02/06 08:41:23;;;;;;;;;55.00;41.00;;;;;-4.09;68.76;100544.31;4917787;28;102097;-70
2023/02/06 08:43:53;;;;;;;;;36.67;28.67;;;;;-3.97;70.25;100558.84;4915155;28;102059;-69
2023/02/06 08:46:22;;;;;;;;;41.33;32.00;;;;;-4.18;68.66;100560.53;4911886;28;104440;-69
2023/02/06 08:48:58;;;;;;;;;33.00;27.67;;;;;-4.20;68.45;100565.03;4926954;28;102468;-69
2023/02/06 08:51:29;;;;;;;;;35.67;28.33;;;;;-4.08;68.78;100575.97;4915207;28;102298;-69
2023/02/06 08:54:01;;;;;;;;;27.00;20.33;;;;;-3.75;68.12;100568.47;4913914;28;102622;-70
2023/02/06 08:56:29;;;;;;;;;23.67;18.00;;;;;-3.74;66.46;100567.50;4922883;28;104012;-69
2023/02/06 08:59:00;;;;;;;;;17.33;13.00;;;;;-3.61;65.61;100570.53;4913223;28;102470;-70
2023/02/06 09:01:30;;;;;;;;;13.00;11.67;;;;;-3.42;67.42;100574.09;4919428;28;102047;-70
2023/02/06 09:03:59;;;;;;;;;16.67;13.00;;;;;-3.33;65.20;100578.16;4923797;28;102199;-69
2023/02/06 09:06:27;;;;;;;;;15.67;13.00;;;;;-3.32;63.65;100574.56;4911756;28;104126;-69
2023/02/06 09:08:56;;;;;;;;;19.00;13.00;;;;;-3.20;64.07;100574.06;4919594;28;102863;-69
2023/02/06 09:11:25;;;;;;;;;13.67;11.67;;;;;-3.09;63.06;100582.38;4914292;28;102204;-69
2023/02/06 09:13:55;;;;;;;;;7.00;5.00;;;;;-2.90;63.50;100583.31;4906245;28;102204;-69
2023/02/06 09:16:24;;;;;;;;;16.33;14.00;;;;;-3.18;61.39;100580.13;4913858;28;104181;-70
2023/02/06 09:18:52;;;;;;;;;10.00;8.00;;;;;-3.04;61.49;100585.69;4919705;28;102364;-69
2023/02/06 09:21:23;;;;;;;;;12.33;10.00;;;;;-3.08;62.32;100586.75;4918599;28;102054;-69
2023/02/06 09:23:53;;;;;;;;;14.00;11.67;;;;;-2.95;60.42;100590.56;4916873;28;102161;-70
2023/02/06 09:26:23;;;;;;;;;10.67;10.67;;;;;-3.13;60.92;100586.09;4917265;28;104052;-70
2023/02/06 09:28:59;;;;;;;;;13.33;10.00;;;;;-3.15;60.47;100586.16;4922846;28;102210;-68
2023/02/06 09:31:30;;;;;;;;;13.00;10.67;;;;;-3.02;63.05;100594.44;4924242;28;102366;-71
2023/02/06 09:34:01;;;;;;;;;13.00;10.33;;;;;-3.00;59.91;100587.28;4910187;28;102484;-71
2023/02/06 09:36:29;;;;;;;;;16.33;11.67;;;;;-3.01;59.94;100561.72;4922387;28;104055;-71
2023/02/06 09:38:57;;;;;;;;;17.00;11.00;;;;;-2.89;60.08;100587.66;4920822;28;102295;-71
2023/02/06 09:41:44;;;;;;;;;14.00;13.00;;;;;-2.94;59.51;100589.66;4916798;28;102273;-71
2023/02/06 09:44:17;;;;;;;;;13.00;11.00;;;;;-2.74;59.95;100594.91;4923880;28;102196;-71
2023/02/06 09:46:50;;;;;;;;;16.00;13.00;;;;;-2.84;61.13;100590.97;4924100;28;109259;-71
2023/02/06 09:49:29;;;;;;;;;14.00;11.67;;;;;-2.88;59.16;100592.00;4915575;28;102520;-72
2023/02/06 09:51:59;;;;;;;;;11.00;7.67;;;;;-2.54;59.26;100598.44;4921687;28;102492;-72
2023/02/06 09:54:40;;;;;;;;;11.67;11.00;;;;;-2.57;58.30;100598.59;4919424;28;102512;-72
2023/02/06 09:57:34;;;;;;;;;13.00;10.67;;;;;-2.70;60.90;100596.50;4914564;28;104182;-72
2023/02/06 10:00:40;;;;;;;;;17.67;17.33;;;;;-2.59;58.64;100603.09;4901139;28;102281;-72
2023/02/06 10:03:26;;;;;;;;;17.00;13.00;;;;;-2.42;57.94;100584.63;4921076;28;102033;-72
2023/02/06 10:06:23;;;;;;;;;16.33;14.00;;;;;-2.48;61.17;100590.25;4910499;28;110197;-72
2023/02/06 10:08:59;;;;;;;;;10.67;4.67;;;;;-2.09;59.48;100577.78;4910602;28;108874;-72
2023/02/06 10:12:00;;;;;;;;;13.67;8.67;;;;;-1.82;58.70;100576.44;4917153;28;102472;-73
2023/02/06 10:14:46;;;;;;;;;13.00;11.00;;;;;-1.99;58.41;100584.34;4916132;28;101951;-73
2023/02/06 10:17:24;;;;;;;;;21.67;17.67;;;;;-2.31;57.91;100575.28;4917668;28;107653;-72
2023/02/06 10:20:20;;;;;;;;;21.00;16.67;;;;;-2.29;59.04;100577.84;4917835;28;108528;-74
2023/02/06 10:22:47;;;;;;;;;15.67;14.00;;;;;-2.32;59.09;100575.34;4922602;28;102622;-74
2023/02/06 10:25:28;;;;;;;;;12.00;7.00;;;;;-2.28;59.28;100569.81;4921771;28;102113;-73
2023/02/06 10:27:58;;;;;;;;;14.33;10.67;;;;;-2.11;59.50;100547.81;4915219;28;102375;-73
2023/02/06 10:30:56;;;;;;;;;7.00;7.00;;;;;-1.61;59.57;100563.03;4917312;28;104744;-74
2023/02/06 10:34:04;;;;;;;;;25.33;19.33;;;;;-1.93;56.55;100578.72;4911772;28;102134;-75
2023/02/06 10:36:43;;;;;;;;;18.33;15.00;;;;;-1.78;57.06;100570.97;4903267;28;102585;-74
2023/02/06 10:39:33;;;;;;;;;18.00;17.33;;;;;-2.06;58.06;100579.41;4914986;28;102140;-74
2023/02/06 10:42:24;;;;;;;;;22.33;20.00;;;;;-2.12;57.61;100572.63;4899842;28;108848;-74
2023/02/06 10:45:00;;;;;;;;;18.67;16.33;;;;;-2.14;57.64;100574.47;4911213;28;102495;-74
2023/02/06 10:48:09;;;;;;;;;24.33;16.00;;;;;-1.86;58.20;100558.97;4930587;28;102236;-74
2023/02/06 10:50:42;;;;;;;;;26.67;20.67;;;;;-1.90;56.33;100562.72;4916097;28;102512;-75
2023/02/06 10:53:17;;;;;;;;;21.33;18.00;;;;;-1.89;57.53;100560.91;4915068;28;104155;-75
2023/02/06 10:56:02;;;;;;;;;32.67;20.00;;;;;-2.29;57.20;100561.94;4913951;28;103936;-72
2023/02/06 10:58:52;;;;;;;;;19.33;17.67;;;;;-2.07;57.69;100553.84;4926968;28;102060;-74
2023/02/06 11:01:21;;;;;;;;;17.00;16.33;;;;;-2.15;57.57;100556.84;4914702;28;102124;-75
2023/02/06 11:04:17;;;;;;;;;16.00;13.67;;;;;-2.00;57.97;100555.25;4902100;28;104115;-75
2023/02/06 11:06:45;;;;;;;;;12.00;8.00;;;;;-1.93;57.37;100544.28;4920884;28;110069;-72
2023/02/06 11:09:14;;;;;;;;;14.33;12.67;;;;;-1.68;56.91;100543.06;4926248;28;102492;-75
2023/02/06 11:11:46;;;;;;;;;17.00;14.00;;;;;-1.80;58.29;100541.88;4925292;28;102416;-76
2023/02/06 11:14:23;;;;;;;;;18.00;17.00;;;;;-2.13;56.06;100546.19;4928800;28;107678;-75
2023/02/06 11:16:52;;;;;;;;;16.67;15.00;;;;;-2.04;59.96;100528.06;4918491;28;102842;-75
2023/02/06 11:19:24;;;;;;;;;24.00;16.33;;;;;-2.03;61.12;100540.38;4925649;28;102056;-75
2023/02/06 11:22:12;;;;;;;;;13.33;10.33;;;;;-2.02;59.25;100525.31;4912559;28;102027;-76
2023/02/06 11:24:58;;;;;;;;;18.33;15.00;;;;;-1.70;60.66;100539.63;4927597;28;104086;-77
2023/02/06 11:27:26;;;;;;;;;11.00;10.33;;;;;-1.84;59.12;100535.88;4914000;28;102652;-76
2023/02/06 11:29:54;;;;;;;;;15.67;12.00;;;;;-2.06;57.92;100527.25;4912778;28;103138;-75